Terminal Aerodrome Forecast
Issued by NWS

Home | Current Version | Previous Version | Text Only | Print | Product List | Glossary On
Versions: 1 2 3 4 5 6 7 8 9 10 11 12 13 14 15
723
FTUS46 KSGX 220520
TAFONT
TAF
KONT 220520Z 2206/2312 VRB04KT P6SM SCT015 BKN080
     FM222100 24012G22KT P6SM SCT100 BKN200
     FM230800 29007KT P6SM SCT250=

USA.gov is the U.S. government's official web portal to all federal, state and local government web resources and services.